createdAt,value
2022-08-20T00:01:16.106Z,99.90
2022-08-20T00:05:21.862Z,99.90
2022-08-20T00:09:23.526Z,99.90
2022-08-20T00:13:29.034Z,99.90
2022-08-20T00:17:39.580Z,99.90
2022-08-20T00:21:41.554Z,99.90
2022-08-20T00:25:44.292Z,99.90
2022-08-20T00:29:45.933Z,99.90
2022-08-20T00:33:47.695Z,99.90
2022-08-20T00:37:49.765Z,99.90
2022-08-20T00:41:52.166Z,99.90
2022-08-20T00:45:57.232Z,99.90
2022-08-20T00:49:58.851Z,99.90
2022-08-20T00:54:06.871Z,99.90
2022-08-20T00:58:09.624Z,99.90
2022-08-20T01:02:12.416Z,99.90
2022-08-20T01:06:14.258Z,99.90
2022-08-20T01:10:19.504Z,99.90
2022-08-20T01:14:24.113Z,99.90
2022-08-20T01:18:27.008Z,99.90
2022-08-20T01:22:52.621Z,99.90
2022-08-20T01:26:55.005Z,99.90
2022-08-20T01:30:56.774Z,99.90
2022-08-20T01:34:58.412Z,99.90
2022-08-20T01:39:00.799Z,99.90
2022-08-20T01:43:06.132Z,99.90
2022-08-20T01:47:14.423Z,99.90
2022-08-20T01:51:20.891Z,99.90
2022-08-20T01:55:23.042Z,99.90
2022-08-20T01:59:24.757Z,99.90
2022-08-20T02:03:26.426Z,99.90
2022-08-20T02:07:29.908Z,99.90
2022-08-20T02:11:33.815Z,99.90
2022-08-20T02:15:37.368Z,99.90
2022-08-20T02:19:43.653Z,99.90
2022-08-20T02:23:45.257Z,99.90
2022-08-20T02:27:48.412Z,99.90
2022-08-20T02:32:32.358Z,99.90
2022-08-20T02:36:12.770Z,99.90
2022-08-20T02:40:16.328Z,99.90
2022-08-20T02:44:20.461Z,99.90
2022-08-20T02:48:23.014Z,99.90
2022-08-20T02:52:24.699Z,99.90
2022-08-20T02:56:27.407Z,99.90
2022-08-20T03:00:37.903Z,99.90
2022-08-20T03:04:39.972Z,99.90
2022-08-20T03:08:41.927Z,99.90
2022-08-20T03:12:43.624Z,99.90
2022-08-20T03:16:45.274Z,99.90
2022-08-20T03:20:47.493Z,99.90
2022-08-20T03:24:54.045Z,99.90
2022-08-20T03:28:55.771Z,99.90
2022-08-20T03:32:57.899Z,99.90
2022-08-20T03:36:59.537Z,99.90
2022-08-20T03:41:02.069Z,99.90
2022-08-20T03:45:04.200Z,99.90
2022-08-20T03:49:06.076Z,99.90
2022-08-20T03:53:08.420Z,99.90
2022-08-20T03:57:16.149Z,99.90
2022-08-20T04:01:44.314Z,99.90
2022-08-20T04:05:40.777Z,99.90
2022-08-20T04:09:44.064Z,99.90
2022-08-20T04:13:45.704Z,99.90
2022-08-20T04:17:50.124Z,99.90
2022-08-20T04:21:52.005Z,99.90
2022-08-20T04:25:54.286Z,99.90
2022-08-20T04:29:59.126Z,99.90
2022-08-20T04:34:02.006Z,99.90
2022-08-20T04:38:06.394Z,99.90
2022-08-20T04:42:08.063Z,99.90
2022-08-20T04:46:10.077Z,99.90
2022-08-20T04:50:12.510Z,99.90
2022-08-20T04:54:14.536Z,99.90
2022-08-20T04:58:18.194Z,99.90
2022-08-20T05:02:20.807Z,99.90
2022-08-20T05:06:24.651Z,99.90
2022-08-20T05:10:26.729Z,99.90
2022-08-20T05:14:29.715Z,99.90
2022-08-20T05:18:35.171Z,99.90
2022-08-20T05:22:36.925Z,99.90
2022-08-20T05:26:38.631Z,99.90
2022-08-20T05:30:41.665Z,99.90
2022-08-20T05:34:44.193Z,99.90
2022-08-20T05:38:49.773Z,99.90
2022-08-20T05:42:52.034Z,99.90
2022-08-20T05:46:53.717Z,99.90
2022-08-20T05:50:56.583Z,99.90
2022-08-20T05:54:58.428Z,99.90
2022-08-20T05:59:06.639Z,99.90
2022-08-20T06:03:26.851Z,99.90
2022-08-20T06:07:28.634Z,99.90
2022-08-20T06:11:33.854Z,99.90
2022-08-20T06:15:39.774Z,99.90
2022-08-20T06:19:44.238Z,99.90
2022-08-20T06:23:56.468Z,99.90
2022-08-20T06:28:02.288Z,99.90
2022-08-20T06:32:04.162Z,99.90
2022-08-20T06:36:07.142Z,99.90
2022-08-20T06:40:11.014Z,99.90
2022-08-20T06:44:12.933Z,99.90
2022-08-20T06:48:15.260Z,99.90
2022-08-20T06:52:17.839Z,99.90
2022-08-20T06:56:19.589Z,99.90
2022-08-20T07:00:21.648Z,99.90
2022-08-20T07:04:24.408Z,99.90
2022-08-20T07:08:26.098Z,99.90
2022-08-20T07:12:27.835Z,99.90
2022-08-20T07:16:29.557Z,99.90
2022-08-20T07:20:32.932Z,99.90
2022-08-20T07:24:37.887Z,99.90
2022-08-20T07:28:42.576Z,99.90
2022-08-20T07:32:45.214Z,99.90
2022-08-20T07:36:48.850Z,99.90
2022-08-20T07:40:58.407Z,99.90
2022-08-20T07:45:00.060Z,99.90
2022-08-20T07:49:02.169Z,99.90
2022-08-20T07:53:03.889Z,99.90
2022-08-20T07:57:05.751Z,99.90
2022-08-20T08:01:07.709Z,99.90
2022-08-20T08:05:10.129Z,99.90
2022-08-20T08:09:13.628Z,99.90
2022-08-20T08:13:15.577Z,99.90
2022-08-20T08:17:17.932Z,99.90
2022-08-20T08:21:22.277Z,99.90
2022-08-20T08:25:23.973Z,99.90
2022-08-20T08:29:26.222Z,99.90
2022-08-20T08:33:30.744Z,99.90
2022-08-20T08:37:32.609Z,99.90
2022-08-20T08:41:50.099Z,99.90
2022-08-20T08:45:57.830Z,99.90
2022-08-20T08:50:01.683Z,99.90
2022-08-20T08:54:07.140Z,99.90
2022-08-20T08:58:16.864Z,99.90
2022-08-20T09:02:21.399Z,99.90
2022-08-20T09:06:24.730Z,99.90
2022-08-20T09:10:26.393Z,99.90
2022-08-20T09:14:28.126Z,99.90
2022-08-20T09:18:29.941Z,99.90
2022-08-20T09:22:33.445Z,99.90
2022-08-20T09:26:39.018Z,99.90
2022-08-20T09:30:40.997Z,99.90
2022-08-20T09:34:45.391Z,99.90
2022-08-20T09:38:47.132Z,99.90
2022-08-20T09:42:49.656Z,99.90
2022-08-20T09:46:51.298Z,99.90
2022-08-20T09:50:53.242Z,99.90
2022-08-20T09:54:59.295Z,99.90
2022-08-20T09:59:03.001Z,99.90
2022-08-20T10:03:04.983Z,99.90
2022-08-20T10:07:07.746Z,99.90
2022-08-20T10:11:10.963Z,99.90
2022-08-20T10:15:12.849Z,99.90
2022-08-20T10:19:14.458Z,99.90
2022-08-20T10:23:16.171Z,99.90
2022-08-20T10:27:17.777Z,99.90
2022-08-20T10:31:19.615Z,99.90
2022-08-20T10:35:24.201Z,99.90
2022-08-20T10:39:25.827Z,99.90
2022-08-20T10:43:28.234Z,99.90
2022-08-20T10:47:31.709Z,99.90
2022-08-20T10:51:33.470Z,99.90
2022-08-20T10:55:35.133Z,99.90
2022-08-20T10:59:41.172Z,99.90
2022-08-20T11:03:42.950Z,99.90
2022-08-20T11:07:50.823Z,99.90
2022-08-20T11:11:58.178Z,99.90
2022-08-20T11:16:01.120Z,99.90
2022-08-20T11:20:04.851Z,99.90
2022-08-20T11:24:06.587Z,99.90
2022-08-20T11:28:08.437Z,99.90
2022-08-20T11:32:10.287Z,99.90
2022-08-20T11:36:12.022Z,99.90
2022-08-20T11:40:13.859Z,99.90
2022-08-20T11:44:20.335Z,99.90
2022-08-20T11:48:23.400Z,99.90
2022-08-20T11:52:25.753Z,99.90
2022-08-20T11:56:30.055Z,99.90
2022-08-20T12:00:33.968Z,99.90
2022-08-20T12:04:35.998Z,99.90
2022-08-20T12:08:39.007Z,99.90
2022-08-20T12:12:40.678Z,99.90
2022-08-20T12:16:42.491Z,99.90
2022-08-20T12:20:44.198Z,99.90
2022-08-20T12:24:45.928Z,99.90
2022-08-20T12:28:47.676Z,99.90
2022-08-20T12:32:49.402Z,99.90
2022-08-20T12:36:50.994Z,99.90
2022-08-20T12:40:52.693Z,99.90
2022-08-20T12:44:54.878Z,99.90
2022-08-20T12:48:56.507Z,99.90
2022-08-20T12:52:58.644Z,99.90
2022-08-20T12:57:00.622Z,99.90
2022-08-20T13:01:02.297Z,99.90
2022-08-20T13:05:05.478Z,99.90
2022-08-20T13:09:07.255Z,99.90
2022-08-20T13:13:08.875Z,99.90
2022-08-20T13:17:10.952Z,99.90
2022-08-20T13:21:12.733Z,99.90
2022-08-20T13:25:14.533Z,99.90
2022-08-20T13:29:16.658Z,99.90
2022-08-20T13:33:18.364Z,99.90
2022-08-20T13:37:25.947Z,99.90
2022-08-20T13:41:27.780Z,99.90
2022-08-20T13:45:29.975Z,99.60
2022-08-20T13:49:33.965Z,98.10
2022-08-20T13:53:35.837Z,97.70
2022-08-20T13:57:38.122Z,97.40
2022-08-20T14:01:39.895Z,98.00
2022-08-20T14:05:41.607Z,97.30
2022-08-20T14:09:44.432Z,97.40
2022-08-20T14:13:46.228Z,96.90
2022-08-20T14:17:52.870Z,96.80
2022-08-20T14:21:54.679Z,95.90
2022-08-20T14:25:59.210Z,93.30
2022-08-20T14:30:01.135Z,91.00
2022-08-20T14:34:02.775Z,92.70
2022-08-20T14:38:05.584Z,91.70
2022-08-20T14:42:10.499Z,90.70
2022-08-20T14:46:12.259Z,90.60
2022-08-20T14:50:18.970Z,92.00
2022-08-20T14:54:20.618Z,91.60
2022-08-20T14:58:22.234Z,91.40
2022-08-20T15:02:25.244Z,92.60
2022-08-20T15:06:26.909Z,93.00
2022-08-20T15:10:36.472Z,92.30
2022-08-20T15:14:40.940Z,92.20
2022-08-20T15:18:43.496Z,92.40
2022-08-20T15:22:45.259Z,92.80
2022-08-20T15:26:47.126Z,93.00
2022-08-20T15:30:48.837Z,92.90
2022-08-20T15:34:53.745Z,93.60
2022-08-20T15:38:55.364Z,93.80
2022-08-20T15:42:58.139Z,93.20
2022-08-20T15:47:18.678Z,93.00
2022-08-20T15:51:32.843Z,93.30
2022-08-20T15:55:40.772Z,94.30
2022-08-20T15:59:51.789Z,94.20
2022-08-20T16:04:12.411Z,94.00
2022-08-20T16:08:14.141Z,93.80
2022-08-20T16:12:42.307Z,95.40
2022-08-20T16:17:01.133Z,96.30
2022-08-20T16:21:08.215Z,95.30
2022-08-20T16:25:10.939Z,96.40
2022-08-20T16:29:22.448Z,95.50
2022-08-20T16:33:53.697Z,97.20
2022-08-20T16:37:58.928Z,97.00
2022-08-20T16:42:05.937Z,94.80
2022-08-20T16:46:18.697Z,95.30
2022-08-20T16:50:22.808Z,95.90
2022-08-20T16:54:29.700Z,96.00
2022-08-20T16:58:32.909Z,95.90
2022-08-20T17:02:34.605Z,96.00
2022-08-20T17:06:39.894Z,96.80
2022-08-20T17:10:59.548Z,96.70
2022-08-20T17:15:01.535Z,96.80
2022-08-20T17:19:08.198Z,97.30
2022-08-20T17:23:12.136Z,96.40
2022-08-20T17:27:17.484Z,97.60
2022-08-20T17:31:38.436Z,96.90
2022-08-20T17:35:43.051Z,97.60
2022-08-20T17:39:49.327Z,97.30
2022-08-20T17:44:00.889Z,98.60
2022-08-20T17:48:03.728Z,99.50
2022-08-20T17:52:10.400Z,99.50
2022-08-20T17:56:15.331Z,99.50
2022-08-20T18:00:23.250Z,99.90
2022-08-20T18:04:24.928Z,99.90
2022-08-20T18:08:49.293Z,99.90
2022-08-20T18:12:57.925Z,99.90
2022-08-20T18:17:02.706Z,99.90
2022-08-20T18:21:04.297Z,99.90
2022-08-20T18:25:06.720Z,99.90
2022-08-20T18:29:20.025Z,99.90
2022-08-20T18:33:29.490Z,99.90
2022-08-20T18:37:35.091Z,99.90
2022-08-20T18:41:38.297Z,99.90
2022-08-20T18:45:40.034Z,99.90
2022-08-20T18:49:41.657Z,99.90
2022-08-20T18:53:46.954Z,99.90
2022-08-20T18:57:55.578Z,99.90
2022-08-20T19:01:57.236Z,99.90
2022-08-20T19:06:13.533Z,99.90
2022-08-20T19:10:28.234Z,99.90
2022-08-20T19:14:50.643Z,99.90
2022-08-20T19:18:53.679Z,99.90
2022-08-20T19:22:58.922Z,99.90
2022-08-20T19:27:05.673Z,99.90
2022-08-20T19:31:12.756Z,99.90
2022-08-20T19:35:17.520Z,99.90
2022-08-20T19:39:20.289Z,99.90
2022-08-20T19:43:25.569Z,99.90
2022-08-20T19:47:35.012Z,99.90
2022-08-20T19:51:55.545Z,99.90
2022-08-20T19:55:59.570Z,99.90
2022-08-20T20:00:11.057Z,99.90
2022-08-20T20:04:17.878Z,99.90
2022-08-20T20:08:20.489Z,99.90
2022-08-20T20:12:23.209Z,99.90
2022-08-20T20:16:25.089Z,99.90
2022-08-20T20:20:31.356Z,99.90
2022-08-20T20:24:43.658Z,99.90
2022-08-20T20:28:48.361Z,99.90
2022-08-20T20:32:50.687Z,99.90
2022-08-20T20:37:01.714Z,99.90
2022-08-20T20:41:05.098Z,99.90
2022-08-20T20:45:17.072Z,99.90
2022-08-20T20:49:23.473Z,99.90
2022-08-20T20:53:29.320Z,99.90
2022-08-20T20:57:49.588Z,99.90
2022-08-20T21:01:51.590Z,99.90
2022-08-20T21:05:54.202Z,99.90
2022-08-20T21:09:57.740Z,99.90
2022-08-20T21:13:59.604Z,99.90
2022-08-20T21:18:02.735Z,99.90
2022-08-20T21:22:04.411Z,99.90
2022-08-20T21:26:11.120Z,99.90
2022-08-20T21:30:13.370Z,99.90
2022-08-20T21:34:15.551Z,99.90
2022-08-20T21:38:17.349Z,99.90
2022-08-20T21:42:28.778Z,99.90
2022-08-20T21:46:31.375Z,99.90
2022-08-20T21:50:33.079Z,99.90
2022-08-20T21:54:34.695Z,99.90
2022-08-20T21:58:36.850Z,99.90
2022-08-20T22:02:38.629Z,99.90
2022-08-20T22:06:40.707Z,99.90
2022-08-20T22:10:42.422Z,99.90
2022-08-20T22:14:44.790Z,99.90
2022-08-20T22:18:47.080Z,99.90
2022-08-20T22:22:48.791Z,99.90
2022-08-20T22:26:50.424Z,99.90
2022-08-20T22:30:52.173Z,99.90
2022-08-20T22:34:53.999Z,99.90
2022-08-20T22:38:56.006Z,99.90
2022-08-20T22:42:57.768Z,99.90
2022-08-20T22:47:00.918Z,99.90
2022-08-20T22:51:02.560Z,99.90
2022-08-20T22:55:05.897Z,99.90
2022-08-20T22:59:07.794Z,99.90
2022-08-20T23:03:09.688Z,99.90
2022-08-20T23:07:12.614Z,99.90
2022-08-20T23:11:14.278Z,99.90
2022-08-20T23:15:15.991Z,99.90
2022-08-20T23:19:21.407Z,99.90
2022-08-20T23:23:24.496Z,99.90
2022-08-20T23:27:26.279Z,99.90
2022-08-20T23:31:27.862Z,99.90
2022-08-20T23:35:29.843Z,99.90
2022-08-20T23:39:34.389Z,99.90
2022-08-20T23:43:36.855Z,99.90
2022-08-20T23:47:41.332Z,99.90
2022-08-20T23:51:42.962Z,99.90
2022-08-20T23:55:44.580Z,99.90
2022-08-20T23:59:46.702Z,99.90
